createdAt,value
2023-03-04T00:01:30.948Z,101306.31
2023-03-04T00:06:28.508Z,101374.81
2023-03-04T00:11:25.446Z,101368.63
2023-03-04T00:16:22.325Z,101362.88
2023-03-04T00:21:19.537Z,101370.50
2023-03-04T00:26:17.517Z,101368.69
2023-03-04T00:31:14.426Z,101370.41
2023-03-04T00:36:14.688Z,101360.84
2023-03-04T00:41:14.594Z,101273.50
2023-03-04T00:46:12.472Z,101306.91
2023-03-04T00:51:09.282Z,101307.84
2023-03-04T00:56:07.226Z,101330.00
2023-03-04T01:01:04.417Z,101356.44
2023-03-04T01:06:02.014Z,101371.97
2023-03-04T01:10:58.916Z,101338.34
2023-03-04T01:15:55.860Z,101334.19
2023-03-04T01:20:52.917Z,101341.66
2023-03-04T01:25:50.364Z,101334.91
2023-03-04T01:30:48.893Z,101365.91
2023-03-04T01:35:46.969Z,101345.28
2023-03-04T01:40:43.998Z,101352.16
2023-03-04T01:45:42.801Z,101339.09
2023-03-04T01:50:39.660Z,101278.34
2023-03-04T01:55:36.465Z,101320.69
2023-03-04T02:00:34.568Z,101320.47
2023-03-04T02:05:32.149Z,101328.00
2023-03-04T02:10:29.626Z,101293.66
2023-03-04T02:15:26.734Z,101220.69
2023-03-04T02:20:44.362Z,101305.41
2023-03-04T02:25:46.668Z,101304.84
2023-03-04T02:30:44.455Z,101317.22
2023-03-04T02:35:41.682Z,101327.78
2023-03-04T02:40:42.171Z,101315.06
2023-03-04T02:45:42.075Z,101330.34
2023-03-04T02:50:46.966Z,101271.34
2023-03-04T02:55:44.185Z,101259.09
2023-03-04T03:00:42.373Z,101321.63
2023-03-04T03:05:40.163Z,101265.72
2023-03-04T03:10:37.898Z,101303.31
2023-03-04T03:15:41.435Z,101292.41
2023-03-04T03:20:40.030Z,101306.22
2023-03-04T03:25:38.013Z,101252.25
2023-03-04T03:30:35.851Z,101314.94
2023-03-04T03:35:36.397Z,101314.88
2023-03-04T03:40:34.137Z,101236.03
2023-03-04T03:45:31.091Z,101249.00
2023-03-04T03:50:28.857Z,101296.00
2023-03-04T03:55:25.706Z,101286.66
2023-03-04T04:00:23.434Z,101303.72
2023-03-04T04:05:20.477Z,101249.00
2023-03-04T04:10:19.985Z,101278.72
2023-03-04T04:15:16.747Z,101306.16
2023-03-04T04:20:14.340Z,101306.09
2023-03-04T04:25:11.431Z,101314.78
2023-03-04T04:30:09.545Z,101312.38
2023-03-04T04:35:07.840Z,101312.16
2023-03-04T04:40:06.903Z,101282.31
2023-03-04T04:45:04.529Z,101290.81
2023-03-04T04:50:03.980Z,101316.31
2023-03-04T04:55:01.187Z,101335.25
2023-03-04T04:59:59.082Z,101301.94
2023-03-04T05:04:55.954Z,101336.00
2023-03-04T05:09:52.853Z,101338.69
2023-03-04T05:14:49.758Z,101321.34
2023-03-04T05:19:47.253Z,101273.59
2023-03-04T05:24:55.553Z,101303.03
2023-03-04T05:29:55.085Z,101300.81
2023-03-04T05:34:52.643Z,101355.72
2023-03-04T05:39:49.533Z,101299.19
2023-03-04T05:44:46.583Z,101321.97
2023-03-04T05:49:44.484Z,101338.88
2023-03-04T05:54:42.030Z,101340.28
2023-03-04T05:59:38.787Z,101357.25
2023-03-04T06:04:36.912Z,101352.31
2023-03-04T06:09:33.839Z,101339.53
2023-03-04T06:14:31.688Z,101341.38
2023-03-04T06:19:28.642Z,101371.97
2023-03-04T06:24:27.683Z,101369.63
2023-03-04T06:29:24.631Z,101340.44
2023-03-04T06:34:22.757Z,101368.44
2023-03-04T06:39:23.033Z,101326.00
2023-03-04T06:44:19.967Z,101396.41
2023-03-04T06:49:17.366Z,101396.97
2023-03-04T06:54:16.994Z,101353.78
2023-03-04T06:59:16.942Z,101372.59
2023-03-04T07:04:15.897Z,101298.75
2023-03-04T07:09:19.726Z,101390.59
2023-03-04T07:14:16.839Z,101312.81
2023-03-04T07:19:13.832Z,101365.44
2023-03-04T07:24:10.784Z,101279.16
2023-03-04T07:29:09.124Z,101268.00
2023-03-04T07:34:07.548Z,101337.13
2023-03-04T07:39:04.715Z,101328.44
2023-03-04T07:44:02.391Z,101367.66
2023-03-04T07:49:00.508Z,101309.09
2023-03-04T07:53:59.515Z,101294.00
2023-03-04T07:59:05.575Z,101328.09
2023-03-04T08:04:05.081Z,101335.16
2023-03-04T08:09:07.093Z,101246.22
2023-03-04T08:19:02.499Z,101318.88
2023-03-04T08:24:07.587Z,101325.94
2023-03-04T08:29:05.933Z,101322.75
2023-03-04T08:34:04.507Z,101251.84
2023-03-04T08:39:12.060Z,101312.97
2023-03-04T08:44:10.600Z,101270.06
2023-03-04T08:49:16.426Z,101260.97
2023-03-04T08:54:21.569Z,101292.59
2023-03-04T08:59:18.386Z,101296.28
2023-03-04T09:04:24.133Z,101243.59
2023-03-04T09:09:21.042Z,101204.91
2023-03-04T09:14:19.907Z,101181.03
2023-03-04T09:19:16.706Z,101277.28
2023-03-04T09:24:18.046Z,101219.88
2023-03-04T09:29:15.239Z,101253.03
2023-03-04T09:34:13.290Z,101240.94
2023-03-04T09:39:10.519Z,101256.50
2023-03-04T09:44:23.190Z,101156.50
2023-03-04T09:49:30.555Z,101236.47
2023-03-04T09:54:45.513Z,101146.28
2023-03-04T09:59:50.946Z,101184.59
2023-03-04T10:04:51.417Z,101168.47
2023-03-04T10:09:55.653Z,101199.69
2023-03-04T10:15:02.638Z,101211.88
2023-03-04T10:20:03.835Z,101188.06
2023-03-04T10:25:15.457Z,101170.75
2023-03-04T10:30:23.929Z,101190.16
2023-03-04T10:35:26.441Z,101178.38
2023-03-04T10:40:25.487Z,101160.78
2023-03-04T10:45:34.692Z,101138.81
2023-03-04T10:50:32.693Z,101136.72
2023-03-04T10:55:42.096Z,101102.72
2023-03-04T11:00:40.210Z,101041.16
2023-03-04T11:05:37.059Z,101107.91
2023-03-04T11:10:40.766Z,101118.41
2023-03-04T11:15:50.905Z,101107.56
2023-03-04T11:20:49.499Z,101047.66
2023-03-04T11:25:50.743Z,101071.78
2023-03-04T11:30:51.744Z,100996.66
2023-03-04T11:35:59.668Z,101055.19
2023-03-04T11:41:00.126Z,101071.34
2023-03-04T11:46:27.532Z,101001.94
2023-03-04T11:51:32.454Z,101058.47
2023-03-04T11:56:35.070Z,100955.31
2023-03-04T12:01:41.889Z,101038.25
2023-03-04T12:06:48.898Z,101005.59
2023-03-04T12:11:56.803Z,101039.44
2023-03-04T12:17:19.139Z,101044.06
2023-03-04T12:22:30.081Z,101043.09
2023-03-04T12:27:39.169Z,101015.16
2023-03-04T12:32:50.973Z,100899.53
2023-03-04T12:37:58.151Z,101024.47
2023-03-04T12:43:09.738Z,101014.50
2023-03-04T12:48:21.587Z,100966.56
2023-03-04T12:53:29.295Z,100922.72
2023-03-04T12:58:28.746Z,100955.34
2023-03-04T13:03:37.649Z,100917.78
2023-03-04T13:08:45.417Z,100964.72
2023-03-04T13:13:42.636Z,100858.75
2023-03-04T13:18:46.906Z,100870.97
2023-03-04T13:23:43.930Z,100934.81
2023-03-04T13:28:40.916Z,100846.09
2023-03-04T13:34:05.042Z,100941.78
2023-03-04T13:39:21.593Z,100879.75
2023-03-04T13:44:50.172Z,100906.03
2023-03-04T13:49:48.254Z,100917.91
2023-03-04T13:54:45.218Z,100853.19
2023-03-04T13:59:44.422Z,100884.34
2023-03-04T14:04:42.911Z,100897.28
2023-03-04T14:09:40.591Z,100886.47
2023-03-04T14:14:45.443Z,100833.47
2023-03-04T14:19:45.478Z,100808.47
2023-03-04T14:24:55.866Z,100870.75
2023-03-04T14:29:57.252Z,100866.44
2023-03-04T14:34:58.127Z,100863.47
2023-03-04T14:39:58.483Z,100780.09
2023-03-04T14:44:58.329Z,100848.31
2023-03-04T14:49:55.385Z,100843.84
2023-03-04T14:55:01.448Z,100837.69
2023-03-04T15:00:15.331Z,100837.47
2023-03-04T15:05:25.385Z,100803.13
2023-03-04T15:10:26.374Z,100841.59
2023-03-04T15:15:48.155Z,100837.72
2023-03-04T15:20:57.674Z,100791.56
2023-03-04T15:25:59.231Z,100828.84
2023-03-04T15:30:56.072Z,100806.53
2023-03-04T15:35:57.224Z,100822.41
2023-03-04T15:40:55.843Z,100803.50
2023-03-04T15:45:53.528Z,100732.09
2023-03-04T15:50:55.550Z,100780.16
2023-03-04T15:55:53.090Z,100686.25
2023-03-04T16:00:51.119Z,100747.22
2023-03-04T16:05:50.384Z,100760.53
2023-03-04T16:10:47.992Z,100793.72
2023-03-04T16:15:45.403Z,100793.63
2023-03-04T16:20:46.202Z,100693.47
2023-03-04T16:25:44.112Z,100800.44
2023-03-04T16:30:41.702Z,100767.69
2023-03-04T16:35:39.332Z,100773.13
2023-03-04T16:40:40.200Z,100738.53
2023-03-04T16:45:37.321Z,100780.38
2023-03-04T16:50:36.544Z,100793.72
2023-03-04T16:55:40.893Z,100818.06
2023-03-04T17:00:38.050Z,100738.50
2023-03-04T17:05:35.066Z,100832.94
2023-03-04T17:10:31.975Z,100798.28
2023-03-04T17:15:29.667Z,100807.13
2023-03-04T17:20:26.645Z,100798.97
2023-03-04T17:25:23.568Z,100815.31
2023-03-04T17:30:20.551Z,100787.44
2023-03-04T17:35:19.974Z,100819.56
2023-03-04T17:40:17.286Z,100818.19
2023-03-04T17:45:14.205Z,100805.06
2023-03-04T17:50:12.313Z,100814.75
2023-03-04T17:55:10.567Z,100764.59
2023-03-04T18:00:09.028Z,100785.16
2023-03-04T18:05:07.015Z,100804.88
2023-03-04T18:10:05.009Z,100788.72
2023-03-04T18:15:02.632Z,100787.34
2023-03-04T18:20:01.267Z,100807.13
2023-03-04T18:24:58.671Z,100809.59
2023-03-04T18:29:56.208Z,100812.31
2023-03-04T18:34:53.779Z,100812.47
2023-03-04T18:39:50.865Z,100761.78
2023-03-04T18:44:47.741Z,100811.16
2023-03-04T18:49:46.368Z,100804.75
2023-03-04T18:54:44.433Z,100777.56
2023-03-04T18:59:45.110Z,100803.22
2023-03-04T19:04:42.358Z,100791.63
2023-03-04T19:09:39.176Z,100817.53
2023-03-04T19:14:36.711Z,100731.09
2023-03-04T19:19:33.819Z,100764.34
2023-03-04T19:24:30.631Z,100746.78
2023-03-04T19:29:27.959Z,100825.34
2023-03-04T19:34:25.673Z,100745.53
2023-03-04T19:39:22.499Z,100816.44
2023-03-04T19:44:19.365Z,100792.16
2023-03-04T19:49:16.262Z,100801.66
2023-03-04T19:54:14.005Z,100819.75
2023-03-04T19:59:11.238Z,100813.66
2023-03-04T20:04:10.917Z,100828.09
2023-03-04T20:09:07.972Z,100808.53
2023-03-04T20:14:05.759Z,100828.28
2023-03-04T20:19:02.616Z,100826.56
2023-03-04T20:24:00.590Z,100828.47
2023-03-04T20:28:57.597Z,100836.31
2023-03-04T20:33:55.800Z,100837.28
2023-03-04T20:39:02.020Z,100837.38
2023-03-04T20:44:00.234Z,100771.88
2023-03-04T20:48:59.300Z,100823.78
2023-03-04T20:53:56.188Z,100813.41
2023-03-04T20:58:56.321Z,100833.19
2023-03-04T21:03:53.403Z,100828.09
2023-03-04T21:08:51.296Z,100830.72
2023-03-04T21:13:55.990Z,100817.72
2023-03-04T21:18:53.203Z,100819.50
2023-03-04T21:23:52.257Z,100740.34
2023-03-04T21:28:50.335Z,100775.06
2023-03-04T21:33:47.986Z,100785.56
2023-03-04T21:38:44.964Z,100807.63
2023-03-04T21:43:42.636Z,100800.75
2023-03-04T21:48:42.049Z,100796.50
2023-03-04T21:53:39.144Z,100769.25
2023-03-04T21:58:41.023Z,100738.00
2023-03-04T22:03:38.462Z,100781.63
2023-03-04T22:08:35.566Z,100721.97
2023-03-04T22:13:33.222Z,100787.63
2023-03-04T22:18:31.103Z,100766.47
2023-03-04T22:23:28.956Z,100784.47
2023-03-04T22:28:27.785Z,100775.25
2023-03-04T22:33:24.912Z,100739.00
2023-03-04T22:38:21.925Z,100757.88
2023-03-04T22:43:19.348Z,100714.63
2023-03-04T22:48:16.209Z,100748.03
2023-03-04T22:53:12.964Z,100705.25
2023-03-04T22:58:09.991Z,100726.75
2023-03-04T23:03:08.002Z,100754.19
2023-03-04T23:08:05.278Z,100753.56
2023-03-04T23:13:02.297Z,100709.28
2023-03-04T23:17:59.408Z,100754.63
2023-03-04T23:22:56.965Z,100747.81
2023-03-04T23:27:53.739Z,100742.66
2023-03-04T23:32:50.546Z,100661.91
2023-03-04T23:37:49.332Z,100744.59
2023-03-04T23:42:46.730Z,100733.69
2023-03-04T23:47:43.608Z,100721.91
2023-03-04T23:52:41.453Z,100749.31
2023-03-04T23:57:38.174Z,100742.41
